createdAt,value
2023-11-24T00:00:14.809Z,9.00
2023-11-24T00:01:16.938Z,9.00
2023-11-24T00:02:19.402Z,9.00
2023-11-24T00:03:21.342Z,9.00
2023-11-24T00:04:23.272Z,9.00
2023-11-24T00:05:25.145Z,9.00
2023-11-24T00:06:27.394Z,9.00
2023-11-24T00:07:30.087Z,9.00
2023-11-24T00:08:31.889Z,9.00
2023-11-24T00:09:33.943Z,9.00
2023-11-24T00:10:36.030Z,9.00
2023-11-24T00:11:38.047Z,9.00
2023-11-24T00:12:40.331Z,9.00
2023-11-24T00:13:42.675Z,9.00
2023-11-24T00:14:45.190Z,9.00
2023-11-24T00:15:48.666Z,9.00
2023-11-24T00:16:50.820Z,9.00
2023-11-24T00:17:54.830Z,9.00
2023-11-24T00:18:58.404Z,9.00
2023-11-24T00:20:00.344Z,9.00
2023-11-24T00:21:07.946Z,9.00
2023-11-24T00:22:10.050Z,9.00
2023-11-24T00:23:11.981Z,8.90
2023-11-24T00:24:14.288Z,8.90
2023-11-24T00:25:16.267Z,8.90
2023-11-24T00:26:24.429Z,8.90
2023-11-24T00:27:33.793Z,8.90
2023-11-24T00:28:37.800Z,8.90
2023-11-24T00:29:42.243Z,8.90
2023-11-24T00:30:44.223Z,8.90
2023-11-24T00:31:46.607Z,8.90
2023-11-24T00:32:48.647Z,8.90
2023-11-24T00:33:50.730Z,8.90
2023-11-24T00:34:52.743Z,8.90
2023-11-24T00:35:55.026Z,8.90
2023-11-24T00:36:56.924Z,8.90
2023-11-24T00:37:59.525Z,8.90
2023-11-24T00:39:01.456Z,8.90
2023-11-24T00:40:03.973Z,8.90
2023-11-24T00:41:10.662Z,8.90
2023-11-24T00:42:12.706Z,8.90
2023-11-24T00:43:14.580Z,8.90
2023-11-24T00:44:16.926Z,8.80
2023-11-24T00:45:19.763Z,8.80
2023-11-24T00:46:23.409Z,8.80
2023-11-24T00:47:27.244Z,8.80
2023-11-24T00:48:29.584Z,8.80
2023-11-24T00:49:33.211Z,8.80
2023-11-24T00:50:35.835Z,8.70
2023-11-24T00:51:37.790Z,8.70
2023-11-24T00:52:39.690Z,8.70
2023-11-24T00:53:41.640Z,8.70
2023-11-24T00:54:43.727Z,8.70
2023-11-24T00:55:45.783Z,8.70
2023-11-24T00:56:47.707Z,8.70
2023-11-24T00:57:49.490Z,8.70
2023-11-24T00:58:52.347Z,8.70
2023-11-24T00:59:54.264Z,8.70
2023-11-24T01:00:56.267Z,8.70
2023-11-24T01:01:58.329Z,8.70
2023-11-24T01:03:00.771Z,8.70
2023-11-24T01:04:02.941Z,8.60
2023-11-24T01:05:05.709Z,8.60
2023-11-24T01:06:08.319Z,8.60
2023-11-24T01:07:11.078Z,8.60
2023-11-24T01:08:13.419Z,8.60
2023-11-24T01:09:15.341Z,8.60
2023-11-24T01:10:17.319Z,8.60
2023-11-24T01:11:20.108Z,8.50
2023-11-24T01:12:22.165Z,8.50
2023-11-24T01:13:24.814Z,8.50
2023-11-24T01:15:28.849Z,8.50
2023-11-24T01:16:30.720Z,8.50
2023-11-24T01:17:32.854Z,8.50
2023-11-24T01:18:37.507Z,8.40
2023-11-24T01:19:39.867Z,8.40
2023-11-24T01:20:42.628Z,8.40
2023-11-24T01:21:44.837Z,8.50
2023-11-24T01:22:47.144Z,8.50
2023-11-24T01:23:51.159Z,8.40
2023-11-24T01:24:53.870Z,8.40
2023-11-24T01:25:55.891Z,8.40
2023-11-24T01:26:57.972Z,8.40
2023-11-24T01:28:01.099Z,8.40
2023-11-24T01:29:03.707Z,8.40
2023-11-24T01:30:10.883Z,8.40
2023-11-24T01:31:12.748Z,8.40
2023-11-24T01:32:14.751Z,8.40
2023-11-24T01:33:16.715Z,8.40
2023-11-24T01:34:18.740Z,8.40
2023-11-24T01:35:20.803Z,8.40
2023-11-24T01:36:23.244Z,8.40
2023-11-24T01:37:25.342Z,8.40
2023-11-24T01:38:27.328Z,8.40
2023-11-24T01:39:29.451Z,8.40
2023-11-24T01:40:32.230Z,8.40
2023-11-24T01:41:35.514Z,8.40
2023-11-24T01:42:41.093Z,8.40
2023-11-24T01:43:58.445Z,8.40
2023-11-24T01:45:00.600Z,8.40
2023-11-24T01:46:02.905Z,8.40
2023-11-24T01:47:07.854Z,8.40
2023-11-24T01:48:10.576Z,8.40
2023-11-24T01:49:12.882Z,8.40
2023-11-24T01:50:16.866Z,8.40
2023-11-24T01:51:19.277Z,8.40
2023-11-24T01:52:21.177Z,8.40
2023-11-24T01:53:23.196Z,8.40
2023-11-24T01:54:27.772Z,8.40
2023-11-24T01:55:29.708Z,8.40
2023-11-24T01:56:32.211Z,8.40
2023-11-24T01:57:36.071Z,8.40
2023-11-24T01:58:38.748Z,8.40
2023-11-24T01:59:40.813Z,8.40
2023-11-24T02:00:44.984Z,8.40
2023-11-24T02:01:46.946Z,8.40
2023-11-24T02:02:49.035Z,8.40
2023-11-24T02:03:51.217Z,8.40
2023-11-24T02:04:53.145Z,8.40
2023-11-24T02:05:55.278Z,8.40
2023-11-24T02:06:58.660Z,8.40
2023-11-24T02:08:00.712Z,8.40
2023-11-24T02:09:02.692Z,8.40
2023-11-24T02:10:05.025Z,8.40
2023-11-24T02:11:07.479Z,8.40
2023-11-24T02:12:09.396Z,8.40
2023-11-24T02:13:11.796Z,8.40
2023-11-24T02:14:13.786Z,8.40
2023-11-24T02:15:15.962Z,8.40
2023-11-24T02:16:18.567Z,8.40
2023-11-24T02:17:20.601Z,8.40
2023-11-24T02:18:22.527Z,8.40
2023-11-24T02:19:24.497Z,8.40
2023-11-24T02:20:27.499Z,8.40
2023-11-24T02:21:30.202Z,8.40
2023-11-24T02:22:36.821Z,8.40
2023-11-24T02:23:39.741Z,8.40
2023-11-24T02:24:41.745Z,8.40
2023-11-24T02:25:43.828Z,8.40
2023-11-24T02:26:45.942Z,8.40
2023-11-24T02:27:48.006Z,8.40
2023-11-24T02:28:50.015Z,8.40
2023-11-24T02:29:52.019Z,8.40
2023-11-24T02:31:00.864Z,8.40
2023-11-24T02:32:03.939Z,8.50
2023-11-24T02:33:05.842Z,8.50
2023-11-24T02:34:08.988Z,8.50
2023-11-24T02:35:11.187Z,8.50
2023-11-24T02:36:22.348Z,8.50
2023-11-24T02:37:24.635Z,8.50
2023-11-24T02:38:26.401Z,8.50
2023-11-24T02:39:28.211Z,8.50
2023-11-24T02:40:30.170Z,8.40
2023-11-24T02:41:33.334Z,8.40
2023-11-24T02:42:36.412Z,8.40
2023-11-24T02:43:38.272Z,8.40
2023-11-24T02:44:40.459Z,8.40
2023-11-24T02:45:42.466Z,8.40
2023-11-24T02:46:44.297Z,8.40
2023-11-24T02:47:46.415Z,8.40
2023-11-24T02:48:48.739Z,8.40
2023-11-24T02:49:50.861Z,8.30
2023-11-24T02:50:53.497Z,8.30
2023-11-24T02:51:55.497Z,8.30
2023-11-24T02:52:57.324Z,8.30
2023-11-24T02:54:00.942Z,8.30
2023-11-24T02:55:03.313Z,8.30
2023-11-24T02:56:06.440Z,8.30
2023-11-24T02:57:08.292Z,8.30
2023-11-24T02:58:12.184Z,8.30
2023-11-24T02:59:14.667Z,8.30
2023-11-24T03:00:19.288Z,8.30
2023-11-24T03:01:21.915Z,8.20
2023-11-24T03:02:23.982Z,8.20
2023-11-24T03:03:27.619Z,8.20
2023-11-24T03:04:29.574Z,8.20
2023-11-24T03:05:31.593Z,8.20
2023-11-24T03:06:41.098Z,8.10
2023-11-24T03:07:43.008Z,8.10
2023-11-24T03:08:45.590Z,8.10
2023-11-24T03:09:48.712Z,8.10
2023-11-24T03:10:50.636Z,8.10
2023-11-24T03:11:55.642Z,8.10
2023-11-24T03:12:57.567Z,8.10
2023-11-24T03:13:59.473Z,8.10
2023-11-24T03:15:01.536Z,8.00
2023-11-24T03:16:06.790Z,8.00
2023-11-24T03:17:08.891Z,8.00
2023-11-24T03:18:12.553Z,8.00
2023-11-24T03:19:14.467Z,8.00
2023-11-24T03:20:16.691Z,8.00
2023-11-24T03:21:18.581Z,8.00
2023-11-24T03:22:20.463Z,8.00
2023-11-24T03:23:22.243Z,8.00
2023-11-24T03:24:24.241Z,8.00
2023-11-24T03:25:26.196Z,8.00
2023-11-24T03:26:28.079Z,8.00
2023-11-24T03:27:30.243Z,8.00
2023-11-24T03:28:34.616Z,8.00
2023-11-24T03:29:37.495Z,8.00
2023-11-24T03:30:39.700Z,8.00
2023-11-24T03:31:41.652Z,8.00
2023-11-24T03:32:43.491Z,8.00
2023-11-24T03:33:45.845Z,8.00
2023-11-24T03:34:47.966Z,8.00
2023-11-24T03:35:49.977Z,8.00
2023-11-24T03:36:52.869Z,8.00
2023-11-24T03:37:56.055Z,7.90
2023-11-24T03:38:58.397Z,8.00
2023-11-24T03:40:00.353Z,7.90
2023-11-24T03:41:03.214Z,7.90
2023-11-24T03:42:05.156Z,7.90
2023-11-24T03:43:07.173Z,7.90
2023-11-24T03:44:09.203Z,7.90
2023-11-24T03:45:12.677Z,7.90
2023-11-24T03:46:14.746Z,7.90
2023-11-24T03:47:17.246Z,7.90
2023-11-24T03:48:22.634Z,7.90
2023-11-24T03:49:24.594Z,7.90
2023-11-24T03:50:26.925Z,7.80
2023-11-24T03:51:28.931Z,7.80
2023-11-24T03:52:30.835Z,7.80
2023-11-24T03:53:32.922Z,7.80
2023-11-24T03:54:35.786Z,7.80
2023-11-24T03:55:37.778Z,7.80
2023-11-24T03:56:39.774Z,7.80
2023-11-24T03:57:42.335Z,7.70
2023-11-24T03:58:44.285Z,7.70
2023-11-24T03:59:46.583Z,7.70
2023-11-24T04:00:49.209Z,7.70
2023-11-24T04:01:51.564Z,7.80
2023-11-24T04:02:53.895Z,7.80
2023-11-24T04:03:57.017Z,7.80
2023-11-24T04:05:00.046Z,7.80
2023-11-24T04:06:01.955Z,7.80
2023-11-24T04:07:05.040Z,7.70
2023-11-24T04:08:06.950Z,7.80
2023-11-24T04:09:10.701Z,7.70
2023-11-24T04:10:13.133Z,7.70
2023-11-24T04:11:15.032Z,7.60
2023-11-24T04:12:16.879Z,7.70
2023-11-24T04:13:18.769Z,7.60
2023-11-24T04:14:20.804Z,7.60
2023-11-24T04:15:22.634Z,7.60
2023-11-24T04:16:24.973Z,7.60
2023-11-24T04:17:27.223Z,7.60
2023-11-24T04:18:29.099Z,7.60
2023-11-24T04:19:30.955Z,7.50
2023-11-24T04:20:32.867Z,7.50
2023-11-24T04:21:35.436Z,7.50
2023-11-24T04:22:38.553Z,7.50
2023-11-24T04:23:40.455Z,7.50
2023-11-24T04:24:42.406Z,7.50
2023-11-24T04:25:45.133Z,7.50
2023-11-24T04:26:47.145Z,7.50
2023-11-24T04:27:49.114Z,7.40
2023-11-24T04:28:50.946Z,7.50
2023-11-24T04:29:52.864Z,7.40
2023-11-24T04:30:55.050Z,7.40
2023-11-24T04:31:56.901Z,7.40
2023-11-24T04:32:58.922Z,7.50
2023-11-24T04:34:01.845Z,7.50
2023-11-24T04:35:04.188Z,7.50
2023-11-24T04:36:07.219Z,7.50
2023-11-24T04:37:09.238Z,7.50
2023-11-24T04:38:11.340Z,7.50
2023-11-24T04:39:16.701Z,7.50
2023-11-24T04:40:19.916Z,7.40
2023-11-24T04:41:24.773Z,7.50
2023-11-24T04:42:28.061Z,7.50
2023-11-24T04:43:29.950Z,7.50
2023-11-24T04:44:32.426Z,7.50
2023-11-24T04:45:36.338Z,7.50
2023-11-24T04:46:38.614Z,7.50
2023-11-24T04:47:40.507Z,7.50
2023-11-24T04:48:43.255Z,7.50
2023-11-24T04:49:45.258Z,7.50
2023-11-24T04:50:47.135Z,7.50
2023-11-24T04:51:49.410Z,7.50
2023-11-24T04:52:51.674Z,7.50
2023-11-24T04:53:53.898Z,7.50
2023-11-24T04:54:55.797Z,7.50
2023-11-24T04:55:57.807Z,7.50
2023-11-24T04:56:59.577Z,7.40
2023-11-24T04:58:01.505Z,7.40
2023-11-24T04:59:03.586Z,7.40
2023-11-24T05:00:09.340Z,7.40
2023-11-24T05:01:12.743Z,7.40
2023-11-24T05:02:14.793Z,7.40
2023-11-24T05:03:16.859Z,7.30
2023-11-24T05:04:18.917Z,7.30
2023-11-24T05:05:20.992Z,7.30
2023-11-24T05:06:26.167Z,7.30
2023-11-24T05:07:28.081Z,7.30
2023-11-24T05:08:30.049Z,7.30
2023-11-24T05:09:31.950Z,7.30
2023-11-24T05:10:33.931Z,7.30
2023-11-24T05:11:35.828Z,7.30
2023-11-24T05:12:37.936Z,7.30
2023-11-24T05:13:39.957Z,7.30
2023-11-24T05:14:41.808Z,7.30
2023-11-24T05:15:43.763Z,7.30
2023-11-24T05:16:45.763Z,7.30
2023-11-24T05:17:47.983Z,7.30
2023-11-24T05:18:50.505Z,7.30
2023-11-24T05:19:52.694Z,7.30
2023-11-24T05:20:54.839Z,7.30
2023-11-24T05:21:56.923Z,7.30
2023-11-24T05:22:58.920Z,7.30
2023-11-24T05:24:00.985Z,7.30
2023-11-24T05:25:04.762Z,7.20
2023-11-24T05:26:06.822Z,7.20
2023-11-24T05:27:08.845Z,7.20
2023-11-24T05:28:11.180Z,7.20
2023-11-24T05:29:13.215Z,7.20
2023-11-24T05:30:15.237Z,7.20
2023-11-24T05:31:17.057Z,7.20
2023-11-24T05:32:19.098Z,7.20
2023-11-24T05:33:20.876Z,7.20
2023-11-24T05:34:22.927Z,7.20
2023-11-24T05:35:24.842Z,7.20
2023-11-24T05:36:28.900Z,7.20
2023-11-24T05:37:31.246Z,7.20
2023-11-24T05:38:33.284Z,7.20
2023-11-24T05:39:38.800Z,7.20
2023-11-24T05:40:40.968Z,7.20
2023-11-24T05:41:45.685Z,7.20
2023-11-24T05:42:47.587Z,7.20
2023-11-24T05:43:50.563Z,7.20
2023-11-24T05:44:52.406Z,7.20
2023-11-24T05:45:54.515Z,7.20
2023-11-24T05:46:57.548Z,7.20
2023-11-24T05:47:59.555Z,7.20
2023-11-24T05:49:01.647Z,7.20
2023-11-24T05:50:06.880Z,7.20
2023-11-24T05:51:08.836Z,7.20
2023-11-24T05:52:16.784Z,7.20
2023-11-24T05:53:18.753Z,7.20
2023-11-24T05:54:20.716Z,7.20
2023-11-24T05:55:22.510Z,7.20
2023-11-24T05:56:24.681Z,7.20
2023-11-24T05:57:26.742Z,7.20
2023-11-24T05:58:28.803Z,7.20
2023-11-24T05:59:31.778Z,7.10
2023-11-24T06:00:33.979Z,7.10
2023-11-24T06:01:36.831Z,7.10
2023-11-24T06:02:38.967Z,7.10
2023-11-24T06:03:41.520Z,7.10
2023-11-24T06:04:43.572Z,7.00
2023-11-24T06:05:45.684Z,7.10
2023-11-24T06:06:48.357Z,7.00
2023-11-24T06:07:53.347Z,7.00
2023-11-24T06:08:56.632Z,7.00
2023-11-24T06:09:58.582Z,7.00
2023-11-24T06:11:00.492Z,7.00
2023-11-24T06:12:02.644Z,7.00
2023-11-24T06:13:04.638Z,7.00
2023-11-24T06:14:06.539Z,7.00
2023-11-24T06:15:10.416Z,7.00
2023-11-24T06:16:13.213Z,7.00
2023-11-24T06:17:15.161Z,6.90
2023-11-24T06:18:17.156Z,6.90
2023-11-24T06:19:19.796Z,7.00
2023-11-24T06:20:21.863Z,6.90
2023-11-24T06:21:23.938Z,6.90
2023-11-24T06:22:25.817Z,6.90
2023-11-24T06:23:29.194Z,6.90
2023-11-24T06:24:31.181Z,6.90
2023-11-24T06:25:33.020Z,6.90
2023-11-24T06:26:35.454Z,6.80
2023-11-24T06:27:39.107Z,6.80
2023-11-24T06:28:41.029Z,6.80
2023-11-24T06:29:44.072Z,6.80
2023-11-24T06:30:45.971Z,6.80
2023-11-24T06:31:47.857Z,6.80
2023-11-24T06:32:49.739Z,6.80
2023-11-24T06:33:51.752Z,6.80
2023-11-24T06:34:53.897Z,6.80
2023-11-24T06:36:00.030Z,6.80
2023-11-24T06:37:01.979Z,6.80
2023-11-24T06:38:03.945Z,6.80
2023-11-24T06:39:11.049Z,6.70
2023-11-24T06:40:13.390Z,6.80
2023-11-24T06:41:15.397Z,6.70
2023-11-24T06:42:17.230Z,6.70
2023-11-24T06:43:19.779Z,6.70
2023-11-24T06:44:23.885Z,6.70
2023-11-24T06:45:26.296Z,6.60
2023-11-24T06:46:28.980Z,6.60
2023-11-24T06:47:33.973Z,6.60
2023-11-24T06:48:39.439Z,6.50
2023-11-24T06:49:41.456Z,6.50
2023-11-24T06:50:44.474Z,6.50
2023-11-24T06:51:48.303Z,6.50
2023-11-24T06:52:50.203Z,6.50
2023-11-24T06:53:52.079Z,6.50
2023-11-24T06:54:54.159Z,6.50
2023-11-24T06:55:56.216Z,6.50
2023-11-24T06:56:58.225Z,6.50
2023-11-24T06:58:00.338Z,6.40
2023-11-24T06:59:02.336Z,6.40
2023-11-24T07:00:07.264Z,6.40
2023-11-24T07:01:09.382Z,6.40
2023-11-24T07:02:11.456Z,6.40
2023-11-24T07:03:13.504Z,6.30
2023-11-24T07:04:17.325Z,6.30
2023-11-24T07:05:19.594Z,6.40
2023-11-24T07:06:21.739Z,6.30
2023-11-24T07:07:23.719Z,6.30
2023-11-24T07:08:25.840Z,6.30
2023-11-24T07:09:27.877Z,6.30
2023-11-24T07:10:31.044Z,6.30
2023-11-24T07:11:33.073Z,6.20
2023-11-24T07:12:35.220Z,6.20
2023-11-24T07:13:37.105Z,6.20
2023-11-24T07:14:39.585Z,6.20
2023-11-24T07:15:41.597Z,6.30
2023-11-24T07:16:43.836Z,6.20
2023-11-24T07:17:46.265Z,6.20
2023-11-24T07:18:48.320Z,6.20
2023-11-24T07:19:50.297Z,6.20
2023-11-24T07:20:52.834Z,6.30
2023-11-24T07:21:54.990Z,6.20
2023-11-24T07:22:56.933Z,6.30
2023-11-24T07:23:58.947Z,6.30
2023-11-24T07:25:01.008Z,6.30
2023-11-24T07:26:03.495Z,6.30
2023-11-24T07:27:06.502Z,6.30
2023-11-24T07:28:10.404Z,6.30
2023-11-24T07:29:15.491Z,6.30
2023-11-24T07:30:17.682Z,6.30
2023-11-24T07:31:19.780Z,6.30
2023-11-24T07:32:26.103Z,6.30
2023-11-24T07:33:28.662Z,6.30
2023-11-24T07:34:33.830Z,6.30
2023-11-24T07:35:35.922Z,6.30
2023-11-24T07:36:37.846Z,6.40
2023-11-24T07:37:40.308Z,6.30
2023-11-24T07:38:42.353Z,6.40
2023-11-24T07:39:46.364Z,6.40
2023-11-24T07:40:49.018Z,6.40
2023-11-24T07:41:51.272Z,6.40
2023-11-24T07:42:54.128Z,6.50
2023-11-24T07:43:56.276Z,6.50
2023-11-24T07:44:58.298Z,6.50
2023-11-24T07:46:00.286Z,6.50
2023-11-24T07:47:02.494Z,6.50
2023-11-24T07:48:04.508Z,6.50
2023-11-24T07:49:06.352Z,6.50
2023-11-24T07:50:08.807Z,6.50
2023-11-24T07:51:11.438Z,6.50
2023-11-24T07:52:13.685Z,6.50
2023-11-24T07:53:15.872Z,6.50
2023-11-24T07:54:18.442Z,6.50
2023-11-24T07:55:20.738Z,6.50
2023-11-24T07:56:23.764Z,6.50
2023-11-24T07:57:26.432Z,6.50
2023-11-24T07:58:31.028Z,6.50
2023-11-24T07:59:33.046Z,6.50
2023-11-24T08:00:35.724Z,6.50
2023-11-24T08:01:38.046Z,6.50
2023-11-24T08:02:41.284Z,6.60
2023-11-24T08:03:43.354Z,6.50
2023-11-24T08:04:45.478Z,6.50
2023-11-24T08:05:52.203Z,6.50
2023-11-24T08:06:55.414Z,6.50
2023-11-24T08:07:58.440Z,6.50
2023-11-24T08:09:04.494Z,6.50
2023-11-24T08:10:07.763Z,6.50
2023-11-24T08:11:10.201Z,6.50
2023-11-24T08:12:14.355Z,6.40
2023-11-24T08:13:16.420Z,6.40
2023-11-24T08:14:24.631Z,6.40
2023-11-24T08:15:26.703Z,6.40
2023-11-24T08:16:28.868Z,6.40
2023-11-24T08:17:30.985Z,6.40
2023-11-24T08:18:32.935Z,6.40
2023-11-24T08:19:34.979Z,6.50
2023-11-24T08:20:36.926Z,6.50
2023-11-24T08:21:38.913Z,6.50
2023-11-24T08:22:40.965Z,6.60
2023-11-24T08:23:42.948Z,6.60
2023-11-24T08:24:44.865Z,6.70
2023-11-24T08:25:47.797Z,6.70
2023-11-24T08:26:49.696Z,6.70
2023-11-24T08:27:51.890Z,6.70
2023-11-24T08:28:53.779Z,6.80
2023-11-24T08:29:55.992Z,6.80
2023-11-24T08:30:58.154Z,6.80
2023-11-24T08:32:00.637Z,6.80
2023-11-24T08:33:04.024Z,6.80
2023-11-24T08:34:06.702Z,6.80
2023-11-24T08:35:09.301Z,6.80
2023-11-24T08:36:13.110Z,6.80
2023-11-24T08:37:15.302Z,6.80
2023-11-24T08:38:17.200Z,6.70
2023-11-24T08:39:20.207Z,6.80
2023-11-24T08:40:23.073Z,6.70
2023-11-24T08:41:31.186Z,6.70
2023-11-24T08:42:40.267Z,6.70
2023-11-24T08:43:42.414Z,6.70
2023-11-24T08:44:46.107Z,6.70
2023-11-24T08:45:48.168Z,6.70
2023-11-24T08:46:50.199Z,6.70
2023-11-24T08:47:52.664Z,6.80
2023-11-24T08:48:56.012Z,6.80
2023-11-24T08:50:00.460Z,6.80
2023-11-24T08:51:02.768Z,6.80
2023-11-24T08:52:04.889Z,6.70
2023-11-24T08:53:06.892Z,6.70
2023-11-24T08:54:10.158Z,6.70
2023-11-24T08:55:12.113Z,6.70
2023-11-24T08:56:14.198Z,6.60
2023-11-24T08:57:17.785Z,6.60
2023-11-24T08:58:19.674Z,6.50
2023-11-24T08:59:24.472Z,6.40
2023-11-24T09:00:28.721Z,6.40
2023-11-24T09:01:30.881Z,6.30
2023-11-24T09:02:33.628Z,6.30
2023-11-24T09:03:35.839Z,6.30
2023-11-24T09:04:38.029Z,6.20
2023-11-24T09:05:41.746Z,6.20
2023-11-24T09:06:43.695Z,6.10
2023-11-24T09:07:46.870Z,6.10
2023-11-24T09:08:48.781Z,6.10
2023-11-24T09:09:51.102Z,6.10
2023-11-24T09:10:53.350Z,6.00
2023-11-24T09:11:55.463Z,6.10
2023-11-24T09:12:57.443Z,6.10
2023-11-24T09:13:59.703Z,6.20
2023-11-24T09:15:06.058Z,6.20
2023-11-24T09:16:08.481Z,6.30
2023-11-24T09:17:10.739Z,6.30
2023-11-24T09:18:12.825Z,6.30
2023-11-24T09:19:14.931Z,6.30
2023-11-24T09:20:20.208Z,6.30
2023-11-24T09:21:22.663Z,6.30
2023-11-24T09:22:24.659Z,6.40
2023-11-24T09:23:26.477Z,6.60
2023-11-24T09:24:28.999Z,6.80
2023-11-24T09:25:31.064Z,7.00
2023-11-24T09:26:33.826Z,7.20
2023-11-24T09:27:35.993Z,7.20
2023-11-24T09:28:38.012Z,7.20
2023-11-24T09:29:39.923Z,7.20
2023-11-24T09:30:41.845Z,7.20
2023-11-24T09:31:43.707Z,7.20
2023-11-24T09:32:47.750Z,7.20
2023-11-24T09:33:49.743Z,7.10
2023-11-24T09:34:52.501Z,7.10
2023-11-24T09:35:56.613Z,7.00
2023-11-24T09:36:58.600Z,7.00
2023-11-24T09:38:00.425Z,7.00
2023-11-24T09:39:02.389Z,7.00
2023-11-24T09:40:05.436Z,7.00
2023-11-24T09:41:10.133Z,7.10
2023-11-24T09:42:17.283Z,7.10
2023-11-24T09:43:21.691Z,7.20
2023-11-24T09:44:25.002Z,7.20
2023-11-24T09:45:28.175Z,7.20
2023-11-24T09:46:42.496Z,7.20
2023-11-24T09:47:52.907Z,7.10
2023-11-24T09:48:55.234Z,7.00
2023-11-24T09:49:59.268Z,6.90
2023-11-24T09:51:04.418Z,6.70
2023-11-24T09:52:06.438Z,6.60
2023-11-24T09:53:14.073Z,6.50
2023-11-24T09:54:18.754Z,6.40
2023-11-24T09:55:25.085Z,6.30
2023-11-24T09:56:29.976Z,6.30
2023-11-24T09:57:31.993Z,6.20
2023-11-24T09:58:34.579Z,6.20
2023-11-24T09:59:36.514Z,6.20
2023-11-24T10:00:41.010Z,6.20
2023-11-24T10:01:44.055Z,6.10
2023-11-24T10:02:47.764Z,6.20
2023-11-24T10:03:53.355Z,6.20
2023-11-24T10:04:55.358Z,6.20
2023-11-24T10:05:57.319Z,6.20
2023-11-24T10:06:59.391Z,6.20
2023-11-24T10:08:02.079Z,6.20
2023-11-24T10:09:07.681Z,6.20
2023-11-24T10:10:10.052Z,6.30
2023-11-24T10:11:14.305Z,6.20
2023-11-24T10:12:19.512Z,6.30
2023-11-24T10:13:21.411Z,6.30
2023-11-24T10:14:23.622Z,6.40
2023-11-24T10:15:26.260Z,6.60
2023-11-24T10:16:28.974Z,6.70
2023-11-24T10:17:35.241Z,6.80
2023-11-24T10:18:37.154Z,7.10
2023-11-24T10:19:39.283Z,7.40
2023-11-24T10:20:42.331Z,7.60
2023-11-24T10:21:46.542Z,7.80
2023-11-24T10:22:51.569Z,7.80
2023-11-24T10:23:53.454Z,7.90
2023-11-24T10:24:58.495Z,8.00
2023-11-24T10:26:00.665Z,8.00
2023-11-24T10:27:22.327Z,8.10
2023-11-24T10:28:27.721Z,8.10
2023-11-24T10:29:32.118Z,8.10
2023-11-24T10:30:37.120Z,8.00
2023-11-24T10:31:40.004Z,7.90
2023-11-24T10:32:44.784Z,7.90
2023-11-24T10:33:46.806Z,7.80
2023-11-24T10:34:48.864Z,7.70
2023-11-24T10:35:51.307Z,7.60
2023-11-24T10:36:54.603Z,7.50
2023-11-24T10:37:58.244Z,7.50
2023-11-24T10:39:10.078Z,7.40
2023-11-24T10:40:16.941Z,7.40
2023-11-24T10:41:21.309Z,7.40
2023-11-24T10:42:25.981Z,7.40
2023-11-24T10:43:35.856Z,7.30
2023-11-24T10:44:42.844Z,7.30
2023-11-24T10:45:48.735Z,7.20
2023-11-24T10:46:57.895Z,7.20
2023-11-24T10:48:10.978Z,7.20
2023-11-24T10:49:26.131Z,7.10
2023-11-24T10:50:33.598Z,7.10
2023-11-24T10:51:52.230Z,7.10
2023-11-24T10:53:16.093Z,7.10
2023-11-24T10:54:26.938Z,7.10
2023-11-24T10:55:31.616Z,7.20
2023-11-24T10:56:38.813Z,7.20
2023-11-24T10:57:42.664Z,7.20
2023-11-24T10:58:48.183Z,7.20
2023-11-24T10:59:51.466Z,7.20
2023-11-24T11:00:53.674Z,7.10
2023-11-24T11:02:02.083Z,7.00
2023-11-24T11:03:06.437Z,6.80
2023-11-24T11:04:08.983Z,6.80
2023-11-24T11:05:28.585Z,6.70
2023-11-24T11:06:48.495Z,6.60
2023-11-24T11:08:29.193Z,6.60
2023-11-24T11:09:43.893Z,6.50
2023-11-24T11:11:16.440Z,6.50
2023-11-24T11:12:42.305Z,6.50
2023-11-24T11:13:46.494Z,6.50
2023-11-24T11:14:49.272Z,6.50
2023-11-24T11:15:52.293Z,6.50
2023-11-24T11:16:54.652Z,6.60
2023-11-24T11:18:17.941Z,6.60
2023-11-24T11:19:40.350Z,6.60
2023-11-24T11:20:43.081Z,6.60
2023-11-24T11:21:50.653Z,6.60
2023-11-24T11:23:00.906Z,6.70
2023-11-24T11:24:06.317Z,6.60
2023-11-24T11:25:17.012Z,6.60
2023-11-24T11:26:45.346Z,6.60
2023-11-24T11:27:48.325Z,6.60
2023-11-24T11:28:58.771Z,6.60
2023-11-24T11:30:01.626Z,6.60
2023-11-24T11:31:29.547Z,6.60
2023-11-24T11:32:32.662Z,6.60
2023-11-24T11:33:34.758Z,6.60
2023-11-24T11:34:37.776Z,6.60
2023-11-24T11:35:45.958Z,6.60
2023-11-24T11:37:02.968Z,6.60
2023-11-24T11:38:05.391Z,6.70
2023-11-24T11:39:07.418Z,6.80
2023-11-24T11:40:13.518Z,6.80
2023-11-24T11:41:39.658Z,6.90
2023-11-24T11:42:59.829Z,7.00
2023-11-24T11:44:02.017Z,7.10
2023-11-24T11:45:12.772Z,7.10
2023-11-24T11:46:18.245Z,7.10
2023-11-24T11:47:28.040Z,7.00
2023-11-24T11:48:36.722Z,7.00
2023-11-24T11:49:42.368Z,6.90
2023-11-24T11:51:03.390Z,6.80
2023-11-24T11:52:12.876Z,6.70
2023-11-24T11:53:17.314Z,6.70
2023-11-24T11:54:19.192Z,6.60
2023-11-24T11:55:24.139Z,6.60
2023-11-24T11:56:28.571Z,6.60
2023-11-24T11:57:30.525Z,6.60
2023-11-24T11:58:35.763Z,6.60
2023-11-24T11:59:38.226Z,6.50
2023-11-24T12:00:41.324Z,6.50
2023-11-24T12:01:43.359Z,6.40
2023-11-24T12:02:48.181Z,6.40
2023-11-24T12:03:51.348Z,6.30
2023-11-24T12:04:53.584Z,6.30
2023-11-24T12:05:58.555Z,6.20
2023-11-24T12:07:02.283Z,6.20
2023-11-24T12:08:06.599Z,6.20
2023-11-24T12:09:09.778Z,6.10
2023-11-24T12:10:12.615Z,6.10
2023-11-24T12:11:14.584Z,6.10
2023-11-24T12:12:16.695Z,6.10
2023-11-24T12:13:18.743Z,6.00
2023-11-24T12:14:21.352Z,6.00
2023-11-24T12:15:25.030Z,6.00
2023-11-24T12:16:29.509Z,6.00
2023-11-24T12:17:32.023Z,6.10
2023-11-24T12:18:34.082Z,6.10
2023-11-24T12:19:38.767Z,6.30
2023-11-24T12:20:43.457Z,6.30
2023-11-24T12:21:47.550Z,6.30
2023-11-24T12:22:50.096Z,6.40
2023-11-24T12:23:55.539Z,6.40
2023-11-24T12:25:03.493Z,6.40
2023-11-24T12:26:06.924Z,6.50
2023-11-24T12:27:09.868Z,6.50
2023-11-24T12:28:13.553Z,6.50
2023-11-24T12:29:16.270Z,6.50
2023-11-24T12:30:20.626Z,6.40
2023-11-24T12:31:29.904Z,6.40
2023-11-24T12:32:33.514Z,6.40
2023-11-24T12:33:35.425Z,6.40
2023-11-24T12:34:42.770Z,6.40
2023-11-24T12:35:49.007Z,6.40
2023-11-24T12:36:55.164Z,6.40
2023-11-24T12:37:57.611Z,6.50
2023-11-24T12:38:59.706Z,6.50
2023-11-24T12:40:01.963Z,6.60
2023-11-24T12:41:06.926Z,6.60
2023-11-24T12:42:08.925Z,6.60
2023-11-24T12:43:14.581Z,6.70
2023-11-24T12:44:16.439Z,6.70
2023-11-24T12:45:18.299Z,6.70
2023-11-24T12:46:22.565Z,6.70
2023-11-24T12:47:41.665Z,6.70
2023-11-24T12:48:46.445Z,6.70
2023-11-24T12:50:00.961Z,6.70
2023-11-24T12:51:04.263Z,6.60
2023-11-24T12:52:07.245Z,6.60
2023-11-24T12:53:09.167Z,6.60
2023-11-24T12:54:12.434Z,6.60
2023-11-24T12:55:14.544Z,6.70
2023-11-24T12:56:16.580Z,6.70
2023-11-24T12:57:18.624Z,6.80
2023-11-24T12:58:21.453Z,6.80
2023-11-24T12:59:23.728Z,6.80
2023-11-24T13:00:28.436Z,6.80
2023-11-24T13:01:32.455Z,6.80
2023-11-24T13:02:34.489Z,6.80
2023-11-24T13:03:36.474Z,6.80
2023-11-24T13:04:38.542Z,6.80
2023-11-24T13:05:40.672Z,6.70
2023-11-24T13:06:42.506Z,6.70
2023-11-24T13:07:45.037Z,6.70
2023-11-24T13:08:48.112Z,6.60
2023-11-24T13:09:52.272Z,6.60
2023-11-24T13:10:54.915Z,6.50
2023-11-24T13:12:05.215Z,6.50
2023-11-24T13:13:12.157Z,6.50
2023-11-24T13:14:17.895Z,6.50
2023-11-24T13:15:22.855Z,6.50
2023-11-24T13:16:25.442Z,6.40
2023-11-24T13:17:27.313Z,6.40
2023-11-24T13:18:29.214Z,6.40
2023-11-24T13:19:33.384Z,6.30
2023-11-24T13:20:39.190Z,6.30
2023-11-24T13:21:41.131Z,6.30
2023-11-24T13:22:45.063Z,6.30
2023-11-24T13:23:47.104Z,6.30
2023-11-24T13:24:49.593Z,6.30
2023-11-24T13:25:51.802Z,6.20
2023-11-24T13:26:54.542Z,6.20
2023-11-24T13:27:56.598Z,6.20
2023-11-24T13:28:58.765Z,6.20
2023-11-24T13:30:01.336Z,6.20
2023-11-24T13:31:06.271Z,6.20
2023-11-24T13:32:09.195Z,6.10
2023-11-24T13:33:11.132Z,6.20
2023-11-24T13:34:15.643Z,6.10
2023-11-24T13:35:17.876Z,6.20
2023-11-24T13:36:22.807Z,6.10
2023-11-24T13:37:25.504Z,6.10
2023-11-24T13:38:27.626Z,6.20
2023-11-24T13:39:30.701Z,6.20
2023-11-24T13:40:32.849Z,6.20
2023-11-24T13:41:34.842Z,6.20
2023-11-24T13:42:36.758Z,6.30
2023-11-24T13:43:38.646Z,6.30
2023-11-24T13:44:43.990Z,6.30
2023-11-24T13:45:46.994Z,6.40
2023-11-24T13:46:49.853Z,6.30
2023-11-24T13:47:52.484Z,6.40
2023-11-24T13:48:54.763Z,6.40
2023-11-24T13:49:58.076Z,6.40
2023-11-24T13:51:04.393Z,6.40
2023-11-24T13:52:06.464Z,6.40
2023-11-24T13:53:08.469Z,6.40
2023-11-24T13:54:15.363Z,6.40
2023-11-24T13:55:18.287Z,6.40
2023-11-24T13:56:20.148Z,6.40
2023-11-24T13:57:22.204Z,6.40
2023-11-24T13:58:24.227Z,6.40
2023-11-24T13:59:26.656Z,6.40
2023-11-24T14:00:28.602Z,6.50
2023-11-24T14:01:31.572Z,6.50
2023-11-24T14:02:34.597Z,6.40
2023-11-24T14:03:36.721Z,6.40
2023-11-24T14:04:39.345Z,6.40
2023-11-24T14:05:42.179Z,6.40
2023-11-24T14:06:54.774Z,6.30